sensor_id;sensor_type;location;lat;lon;timestamp;P1;durP1;ratioP1;P2;durP2;ratioP2
65665;SDS011;52365;47.464;18.976;2023-02-01T00:00:06;4.75;;;2.47;;
65665;SDS011;52365;47.464;18.976;2023-02-01T00:00:43;5.30;;;2.42;;
65665;SDS011;52365;47.464;18.976;2023-02-01T00:01:19;7.57;;;2.70;;
65665;SDS011;52365;47.464;18.976;2023-02-01T00:01:55;6.05;;;2.45;;
65665;SDS011;52365;47.464;18.976;2023-02-01T00:02:31;6.18;;;2.45;;
65665;SDS011;52365;47.464;18.976;2023-02-01T00:03:07;4.95;;;2.03;;
65665;SDS011;52365;47.464;18.976;2023-02-01T00:03:44;5.35;;;2.40;;
65665;SDS011;52365;47.464;18.976;2023-02-01T00:04:20;5.70;;;2.40;;
65665;SDS011;52365;47.464;18.976;2023-02-01T00:04:56;5.80;;;2.15;;
65665;SDS011;52365;47.464;18.976;2023-02-01T00:05:32;5.85;;;2.20;;
65665;SDS011;52365;47.464;18.976;2023-02-01T00:06:08;5.03;;;2.00;;
65665;SDS011;52365;47.464;18.976;2023-02-01T00:06:44;4.75;;;2.20;;
65665;SDS011;52365;47.464;18.976;2023-02-01T00:07:20;6.65;;;2.40;;
65665;SDS011;52365;47.464;18.976;2023-02-01T00:07:56;3.35;;;2.10;;
65665;SDS011;52365;47.464;18.976;2023-02-01T00:08:32;4.95;;;2.17;;
65665;SDS011;52365;47.464;18.976;2023-02-01T00:09:08;6.45;;;2.40;;
65665;SDS011;52365;47.464;18.976;2023-02-01T00:09:44;4.28;;;2.00;;
65665;SDS011;52365;47.464;18.976;2023-02-01T00:10:20;5.80;;;2.15;;
65665;SDS011;52365;47.464;18.976;2023-02-01T00:11:43;3.83;;;1.95;;
65665;SDS011;52365;47.464;18.976;2023-02-01T00:12:19;7.70;;;2.62;;
65665;SDS011;52365;47.464;18.976;2023-02-01T00:12:55;5.47;;;2.30;;
65665;SDS011;52365;47.464;18.976;2023-02-01T00:13:31;6.18;;;2.47;;
65665;SDS011;52365;47.464;18.976;2023-02-01T00:14:08;4.87;;;2.08;;
65665;SDS011;52365;47.464;18.976;2023-02-01T00:14:45;5.57;;;2.30;;
65665;SDS011;52365;47.464;18.976;2023-02-01T00:15:22;5.70;;;2.08;;
65665;SDS011;52365;47.464;18.976;2023-02-01T00:16:05;5.80;;;2.10;;
65665;SDS011;52365;47.464;18.976;2023-02-01T00:16:45;6.43;;;2.60;;
65665;SDS011;52365;47.464;18.976;2023-02-01T00:17:21;5.70;;;2.10;;
65665;SDS011;52365;47.464;18.976;2023-02-01T00:17:58;7.10;;;2.60;;
65665;SDS011;52365;47.464;18.976;2023-02-01T00:18:34;6.37;;;2.30;;
65665;SDS011;52365;47.464;18.976;2023-02-01T00:19:11;5.78;;;2.30;;
65665;SDS011;52365;47.464;18.976;2023-02-01T00:19:49;5.28;;;2.25;;
65665;SDS011;52365;47.464;18.976;2023-02-01T00:20:25;7.00;;;2.47;;
65665;SDS011;52365;47.464;18.976;2023-02-01T00:21:01;5.22;;;2.22;;
65665;SDS011;52365;47.464;18.976;2023-02-01T00:21:38;5.70;;;2.20;;
65665;SDS011;52365;47.464;18.976;2023-02-01T00:22:14;7.70;;;2.35;;
65665;SDS011;52365;47.464;18.976;2023-02-01T00:22:50;5.32;;;2.20;;
65665;SDS011;52365;47.464;18.976;2023-02-01T00:23:26;6.97;;;2.28;;
65665;SDS011;52365;47.464;18.976;2023-02-01T00:24:02;6.28;;;2.40;;
65665;SDS011;52365;47.464;18.976;2023-02-01T00:24:39;6.32;;;2.30;;
65665;SDS011;52365;47.464;18.976;2023-02-01T00:25:15;5.65;;;2.40;;
65665;SDS011;52365;47.464;18.976;2023-02-01T00:25:51;6.47;;;2.33;;
65665;SDS011;52365;47.464;18.976;2023-02-01T00:26:35;8.10;;;2.62;;
65665;SDS011;52365;47.464;18.976;2023-02-01T00:27:13;6.90;;;2.40;;
65665;SDS011;52365;47.464;18.976;2023-02-01T00:27:53;4.95;;;2.20;;
65665;SDS011;52365;47.464;18.976;2023-02-01T00:28:29;5.70;;;2.33;;
65665;SDS011;52365;47.464;18.976;2023-02-01T00:29:06;5.70;;;2.40;;
65665;SDS011;52365;47.464;18.976;2023-02-01T00:29:46;5.03;;;2.20;;
65665;SDS011;52365;47.464;18.976;2023-02-01T00:30:22;5.85;;;2.30;;
65665;SDS011;52365;47.464;18.976;2023-02-01T00:30:58;7.90;;;2.37;;
65665;SDS011;52365;47.464;18.976;2023-02-01T00:31:35;6.30;;;2.30;;
65665;SDS011;52365;47.464;18.976;2023-02-01T00:32:11;5.82;;;2.20;;
65665;SDS011;52365;47.464;18.976;2023-02-01T00:32:48;7.68;;;2.65;;
65665;SDS011;52365;47.464;18.976;2023-02-01T00:33:24;7.47;;;2.70;;
65665;SDS011;52365;47.464;18.976;2023-02-01T00:34:00;7.32;;;2.58;;
65665;SDS011;52365;47.464;18.976;2023-02-01T00:34:36;8.90;;;3.12;;
65665;SDS011;52365;47.464;18.976;2023-02-01T00:35:12;9.32;;;2.90;;
65665;SDS011;52365;47.464;18.976;2023-02-01T00:35:48;8.27;;;3.10;;
65665;SDS011;52365;47.464;18.976;2023-02-01T00:36:24;6.12;;;2.70;;
65665;SDS011;52365;47.464;18.976;2023-02-01T00:37:01;7.28;;;3.20;;
65665;SDS011;52365;47.464;18.976;2023-02-01T00:37:37;9.05;;;3.15;;
65665;SDS011;52365;47.464;18.976;2023-02-01T00:38:13;8.50;;;3.15;;
65665;SDS011;52365;47.464;18.976;2023-02-01T00:38:49;8.13;;;3.12;;
65665;SDS011;52365;47.464;18.976;2023-02-01T00:39:25;9.15;;;3.47;;
65665;SDS011;52365;47.464;18.976;2023-02-01T00:40:01;7.72;;;2.90;;
65665;SDS011;52365;47.464;18.976;2023-02-01T00:40:37;8.63;;;2.95;;
65665;SDS011;52365;47.464;18.976;2023-02-01T00:41:14;7.53;;;3.30;;
65665;SDS011;52365;47.464;18.976;2023-02-01T00:41:52;8.15;;;3.17;;
65665;SDS011;52365;47.464;18.976;2023-02-01T00:42:28;8.18;;;2.70;;
65665;SDS011;52365;47.464;18.976;2023-02-01T00:43:04;8.65;;;2.70;;
65665;SDS011;52365;47.464;18.976;2023-02-01T00:43:40;6.15;;;2.78;;
65665;SDS011;52365;47.464;18.976;2023-02-01T00:44:17;6.37;;;2.60;;
65665;SDS011;52365;47.464;18.976;2023-02-01T00:44:53;5.90;;;2.70;;
65665;SDS011;52365;47.464;18.976;2023-02-01T00:45:29;7.93;;;2.90;;
65665;SDS011;52365;47.464;18.976;2023-02-01T00:46:05;7.05;;;2.90;;
65665;SDS011;52365;47.464;18.976;2023-02-01T00:46:41;4.68;;;2.70;;
65665;SDS011;52365;47.464;18.976;2023-02-01T00:47:17;6.37;;;2.90;;
65665;SDS011;52365;47.464;18.976;2023-02-01T00:47:55;6.57;;;3.05;;
65665;SDS011;52365;47.464;18.976;2023-02-01T00:48:31;7.12;;;2.78;;
65665;SDS011;52365;47.464;18.976;2023-02-01T00:49:08;8.00;;;3.00;;
65665;SDS011;52365;47.464;18.976;2023-02-01T00:49:44;7.45;;;2.80;;
65665;SDS011;52365;47.464;18.976;2023-02-01T00:50:20;6.30;;;2.67;;
65665;SDS011;52365;47.464;18.976;2023-02-01T00:51:00;7.43;;;3.00;;
65665;SDS011;52365;47.464;18.976;2023-02-01T00:51:37;7.30;;;2.90;;
65665;SDS011;52365;47.464;18.976;2023-02-01T00:52:13;6.85;;;2.92;;
65665;SDS011;52365;47.464;18.976;2023-02-01T00:52:49;6.12;;;2.70;;
65665;SDS011;52365;47.464;18.976;2023-02-01T00:53:25;6.80;;;2.55;;
65665;SDS011;52365;47.464;18.976;2023-02-01T00:54:01;4.97;;;2.60;;
65665;SDS011;52365;47.464;18.976;2023-02-01T00:54:38;6.05;;;2.60;;
65665;SDS011;52365;47.464;18.976;2023-02-01T00:55:14;5.43;;;2.37;;
65665;SDS011;52365;47.464;18.976;2023-02-01T00:55:51;6.28;;;2.65;;
65665;SDS011;52365;47.464;18.976;2023-02-01T00:56:27;6.60;;;2.67;;
65665;SDS011;52365;47.464;18.976;2023-02-01T00:57:03;6.22;;;2.60;;
65665;SDS011;52365;47.464;18.976;2023-02-01T00:57:39;7.93;;;3.03;;
65665;SDS011;52365;47.464;18.976;2023-02-01T00:58:15;5.97;;;2.77;;
65665;SDS011;52365;47.464;18.976;2023-02-01T00:58:51;7.55;;;2.80;;
65665;SDS011;52365;47.464;18.976;2023-02-01T00:59:27;6.75;;;2.75;;
65665;SDS011;52365;47.464;18.976;2023-02-01T01:00:03;5.28;;;2.70;;
65665;SDS011;52365;47.464;18.976;2023-02-01T01:00:40;7.53;;;2.83;;
65665;SDS011;52365;47.464;18.976;2023-02-01T01:01:20;5.70;;;2.80;;
65665;SDS011;52365;47.464;18.976;2023-02-01T01:01:58;7.03;;;2.72;;
65665;SDS011;52365;47.464;18.976;2023-02-01T01:02:34;5.57;;;2.70;;
65665;SDS011;52365;47.464;18.976;2023-02-01T01:03:10;5.07;;;2.60;;
65665;SDS011;52365;47.464;18.976;2023-02-01T01:03:56;7.15;;;2.70;;
65665;SDS011;52365;47.464;18.976;2023-02-01T01:04:34;4.57;;;2.60;;
65665;SDS011;52365;47.464;18.976;2023-02-01T01:05:10;5.85;;;2.75;;
65665;SDS011;52365;47.464;18.976;2023-02-01T01:05:47;6.47;;;2.87;;
65665;SDS011;52365;47.464;18.976;2023-02-01T01:06:25;5.82;;;2.87;;
65665;SDS011;52365;47.464;18.976;2023-02-01T01:07:03;5.53;;;2.60;;
65665;SDS011;52365;47.464;18.976;2023-02-01T01:07:39;5.35;;;2.70;;
65665;SDS011;52365;47.464;18.976;2023-02-01T01:08:16;5.57;;;2.67;;
65665;SDS011;52365;47.464;18.976;2023-02-01T01:08:53;6.40;;;2.80;;
65665;SDS011;52365;47.464;18.976;2023-02-01T01:09:30;6.20;;;2.70;;
65665;SDS011;52365;47.464;18.976;2023-02-01T01:10:06;6.28;;;2.80;;
65665;SDS011;52365;47.464;18.976;2023-02-01T01:10:43;6.43;;;2.85;;
65665;SDS011;52365;47.464;18.976;2023-02-01T01:11:20;5.15;;;2.62;;
65665;SDS011;52365;47.464;18.976;2023-02-01T01:11:58;6.97;;;2.60;;
65665;SDS011;52365;47.464;18.976;2023-02-01T01:12:38;5.65;;;2.45;;
65665;SDS011;52365;47.464;18.976;2023-02-01T01:13:14;6.20;;;2.60;;
65665;SDS011;52365;47.464;18.976;2023-02-01T01:13:51;5.50;;;2.70;;
65665;SDS011;52365;47.464;18.976;2023-02-01T01:14:29;6.45;;;2.75;;
65665;SDS011;52365;47.464;18.976;2023-02-01T01:15:06;6.10;;;2.92;;
65665;SDS011;52365;47.464;18.976;2023-02-01T01:15:42;6.30;;;3.30;;
65665;SDS011;52365;47.464;18.976;2023-02-01T01:16:19;6.68;;;2.72;;
65665;SDS011;52365;47.464;18.976;2023-02-01T01:16:57;8.52;;;3.47;;
65665;SDS011;52365;47.464;18.976;2023-02-01T01:17:33;8.32;;;3.10;;
65665;SDS011;52365;47.464;18.976;2023-02-01T01:18:09;8.25;;;3.35;;
65665;SDS011;52365;47.464;18.976;2023-02-01T01:18:45;8.75;;;2.90;;
65665;SDS011;52365;47.464;18.976;2023-02-01T01:19:22;6.12;;;2.90;;
65665;SDS011;52365;47.464;18.976;2023-02-01T01:19:58;6.40;;;3.00;;
65665;SDS011;52365;47.464;18.976;2023-02-01T01:20:35;5.55;;;2.97;;
65665;SDS011;52365;47.464;18.976;2023-02-01T01:21:13;5.82;;;2.70;;
65665;SDS011;52365;47.464;18.976;2023-02-01T01:21:50;5.82;;;2.70;;
65665;SDS011;52365;47.464;18.976;2023-02-01T01:22:26;5.00;;;2.50;;
65665;SDS011;52365;47.464;18.976;2023-02-01T01:23:03;6.53;;;2.80;;
65665;SDS011;52365;47.464;18.976;2023-02-01T01:23:39;5.05;;;2.83;;
65665;SDS011;52365;47.464;18.976;2023-02-01T01:24:15;5.78;;;2.70;;
65665;SDS011;52365;47.464;18.976;2023-02-01T01:24:51;6.05;;;2.70;;
65665;SDS011;52365;47.464;18.976;2023-02-01T01:25:27;5.65;;;2.62;;
65665;SDS011;52365;47.464;18.976;2023-02-01T01:26:06;6.80;;;2.80;;
65665;SDS011;52365;47.464;18.976;2023-02-01T01:26:48;5.75;;;2.67;;
65665;SDS011;52365;47.464;18.976;2023-02-01T01:27:24;5.65;;;2.75;;
65665;SDS011;52365;47.464;18.976;2023-02-01T01:28:00;6.12;;;2.58;;
65665;SDS011;52365;47.464;18.976;2023-02-01T01:28:36;6.40;;;2.83;;
65665;SDS011;52365;47.464;18.976;2023-02-01T01:29:12;5.65;;;2.80;;
65665;SDS011;52365;47.464;18.976;2023-02-01T01:29:49;6.75;;;2.50;;
65665;SDS011;52365;47.464;18.976;2023-02-01T01:30:25;6.30;;;2.70;;
65665;SDS011;52365;47.464;18.976;2023-02-01T01:31:01;6.20;;;2.50;;
65665;SDS011;52365;47.464;18.976;2023-02-01T01:31:38;7.10;;;3.00;;
65665;SDS011;52365;47.464;18.976;2023-02-01T01:32:14;6.30;;;2.75;;
65665;SDS011;52365;47.464;18.976;2023-02-01T01:32:51;7.72;;;2.95;;
65665;SDS011;52365;47.464;18.976;2023-02-01T01:33:28;6.25;;;3.10;;
65665;SDS011;52365;47.464;18.976;2023-02-01T01:34:04;6.60;;;2.92;;
65665;SDS011;52365;47.464;18.976;2023-02-01T01:34:40;6.25;;;2.80;;
65665;SDS011;52365;47.464;18.976;2023-02-01T01:35:16;6.47;;;2.80;;
65665;SDS011;52365;47.464;18.976;2023-02-01T01:35:52;5.20;;;2.70;;
65665;SDS011;52365;47.464;18.976;2023-02-01T01:36:28;5.97;;;2.70;;
65665;SDS011;52365;47.464;18.976;2023-02-01T01:37:04;5.43;;;2.62;;
65665;SDS011;52365;47.464;18.976;2023-02-01T01:37:41;6.37;;;2.92;;
65665;SDS011;52365;47.464;18.976;2023-02-01T01:38:17;6.68;;;2.72;;
65665;SDS011;52365;47.464;18.976;2023-02-01T01:38:53;5.87;;;3.08;;
65665;SDS011;52365;47.464;18.976;2023-02-01T01:39:29;6.68;;;2.67;;
65665;SDS011;52365;47.464;18.976;2023-02-01T01:40:06;6.40;;;3.15;;
65665;SDS011;52365;47.464;18.976;2023-02-01T01:40:47;5.62;;;2.62;;
65665;SDS011;52365;47.464;18.976;2023-02-01T01:41:28;7.03;;;2.97;;
65665;SDS011;52365;47.464;18.976;2023-02-01T01:42:08;5.07;;;2.80;;
65665;SDS011;52365;47.464;18.976;2023-02-01T01:42:47;5.53;;;2.53;;
65665;SDS011;52365;47.464;18.976;2023-02-01T01:43:24;6.53;;;2.95;;
65665;SDS011;52365;47.464;18.976;2023-02-01T01:44:06;7.03;;;2.90;;
65665;SDS011;52365;47.464;18.976;2023-02-01T01:46:05;6.55;;;2.90;;
65665;SDS011;52365;47.464;18.976;2023-02-01T01:46:41;7.32;;;2.92;;
65665;SDS011;52365;47.464;18.976;2023-02-01T01:47:17;7.15;;;2.78;;
65665;SDS011;52365;47.464;18.976;2023-02-01T01:48:04;8.00;;;2.90;;
65665;SDS011;52365;47.464;18.976;2023-02-01T01:48:53;5.60;;;2.97;;
65665;SDS011;52365;47.464;18.976;2023-02-01T01:49:32;7.72;;;3.25;;
65665;SDS011;52365;47.464;18.976;2023-02-01T01:50:09;6.00;;;2.90;;
65665;SDS011;52365;47.464;18.976;2023-02-01T01:50:55;9.30;;;3.28;;
65665;SDS011;52365;47.464;18.976;2023-02-01T01:51:38;7.20;;;3.15;;
65665;SDS011;52365;47.464;18.976;2023-02-01T01:52:20;5.93;;;3.37;;
65665;SDS011;52365;47.464;18.976;2023-02-01T01:52:57;8.00;;;3.55;;
65665;SDS011;52365;47.464;18.976;2023-02-01T01:53:38;7.78;;;3.78;;
65665;SDS011;52365;47.464;18.976;2023-02-01T01:55:01;7.55;;;3.72;;
65665;SDS011;52365;47.464;18.976;2023-02-01T01:55:38;7.10;;;3.30;;
65665;SDS011;52365;47.464;18.976;2023-02-01T01:56:17;7.25;;;3.60;;
65665;SDS011;52365;47.464;18.976;2023-02-01T01:56:54;7.65;;;3.60;;
65665;SDS011;52365;47.464;18.976;2023-02-01T01:57:34;7.47;;;3.72;;
65665;SDS011;52365;47.464;18.976;2023-02-01T01:58:16;6.75;;;3.30;;
65665;SDS011;52365;47.464;18.976;2023-02-01T01:58:54;7.85;;;3.78;;
65665;SDS011;52365;47.464;18.976;2023-02-01T01:59:31;8.75;;;3.37;;
65665;SDS011;52365;47.464;18.976;2023-02-01T02:00:14;9.02;;;3.83;;
65665;SDS011;52365;47.464;18.976;2023-02-01T02:00:53;6.57;;;3.40;;
65665;SDS011;52365;47.464;18.976;2023-02-01T02:01:29;9.68;;;3.65;;
65665;SDS011;52365;47.464;18.976;2023-02-01T02:02:05;7.12;;;3.37;;
65665;SDS011;52365;47.464;18.976;2023-02-01T02:02:42;9.15;;;3.70;;
65665;SDS011;52365;47.464;18.976;2023-02-01T02:03:23;9.23;;;3.58;;
65665;SDS011;52365;47.464;18.976;2023-02-01T02:04:02;8.75;;;3.40;;
65665;SDS011;52365;47.464;18.976;2023-02-01T02:04:39;6.22;;;3.30;;
65665;SDS011;52365;47.464;18.976;2023-02-01T02:05:16;7.03;;;3.30;;
65665;SDS011;52365;47.464;18.976;2023-02-01T02:05:54;6.85;;;3.55;;
65665;SDS011;52365;47.464;18.976;2023-02-01T02:06:35;6.20;;;3.40;;
65665;SDS011;52365;47.464;18.976;2023-02-01T02:07:31;6.03;;;3.22;;
65665;SDS011;52365;47.464;18.976;2023-02-01T02:08:11;8.00;;;3.22;;
65665;SDS011;52365;47.464;18.976;2023-02-01T02:08:47;6.30;;;3.20;;
65665;SDS011;52365;47.464;18.976;2023-02-01T02:09:23;8.90;;;3.50;;
65665;SDS011;52365;47.464;18.976;2023-02-01T02:09:59;6.57;;;3.30;;
65665;SDS011;52365;47.464;18.976;2023-02-01T02:10:37;6.18;;;3.37;;
65665;SDS011;52365;47.464;18.976;2023-02-01T02:11:32;7.80;;;3.10;;
65665;SDS011;52365;47.464;18.976;2023-02-01T02:12:09;8.48;;;3.35;;
65665;SDS011;52365;47.464;18.976;2023-02-01T02:12:46;5.40;;;2.90;;
65665;SDS011;52365;47.464;18.976;2023-02-01T02:13:24;7.05;;;2.90;;
65665;SDS011;52365;47.464;18.976;2023-02-01T02:14:07;6.25;;;3.08;;
65665;SDS011;52365;47.464;18.976;2023-02-01T02:14:47;5.70;;;2.87;;
65665;SDS011;52365;47.464;18.976;2023-02-01T02:15:24;6.37;;;2.92;;
65665;SDS011;52365;47.464;18.976;2023-02-01T02:18:05;4.72;;;2.55;;
65665;SDS011;52365;47.464;18.976;2023-02-01T02:23:25;4.93;;;2.60;;
65665;SDS011;52365;47.464;18.976;2023-02-01T02:27:07;4.50;;;2.50;;
65665;SDS011;52365;47.464;18.976;2023-02-01T02:31:24;3.58;;;2.40;;
65665;SDS011;52365;47.464;18.976;2023-02-01T02:32:23;5.10;;;2.50;;
65665;SDS011;52365;47.464;18.976;2023-02-01T02:33:17;3.80;;;2.42;;
65665;SDS011;52365;47.464;18.976;2023-02-01T02:34:47;4.70;;;2.22;;
65665;SDS011;52365;47.464;18.976;2023-02-01T02:35:47;4.43;;;2.30;;
65665;SDS011;52365;47.464;18.976;2023-02-01T02:40:24;4.07;;;2.20;;
65665;SDS011;52365;47.464;18.976;2023-02-01T02:41:46;3.50;;;2.25;;
65665;SDS011;52365;47.464;18.976;2023-02-01T02:44:00;5.03;;;2.42;;
65665;SDS011;52365;47.464;18.976;2023-02-01T02:45:17;4.05;;;2.20;;
65665;SDS011;52365;47.464;18.976;2023-02-01T02:46:21;5.03;;;2.30;;
65665;SDS011;52365;47.464;18.976;2023-02-01T02:48:22;4.15;;;2.00;;
65665;SDS011;52365;47.464;18.976;2023-02-01T02:48:47;3.58;;;2.25;;
65665;SDS011;52365;47.464;18.976;2023-02-01T02:52:17;4.28;;;2.40;;
65665;SDS011;52365;47.464;18.976;2023-02-01T02:53:16;4.20;;;2.40;;
65665;SDS011;52365;47.464;18.976;2023-02-01T02:54:16;4.12;;;2.50;;
65665;SDS011;52365;47.464;18.976;2023-02-01T02:55:14;4.12;;;2.28;;
65665;SDS011;52365;47.464;18.976;2023-02-01T02:55:51;6.35;;;2.58;;
65665;SDS011;52365;47.464;18.976;2023-02-01T02:56:37;4.35;;;2.33;;
65665;SDS011;52365;47.464;18.976;2023-02-01T02:57:34;4.15;;;2.30;;
65665;SDS011;52365;47.464;18.976;2023-02-01T02:58:32;4.37;;;2.37;;
65665;SDS011;52365;47.464;18.976;2023-02-01T02:59:27;4.50;;;2.40;;
65665;SDS011;52365;47.464;18.976;2023-02-01T03:00:27;4.07;;;2.35;;
65665;SDS011;52365;47.464;18.976;2023-02-01T03:01:25;4.30;;;2.40;;
65665;SDS011;52365;47.464;18.976;2023-02-01T03:02:20;3.90;;;2.47;;
65665;SDS011;52365;47.464;18.976;2023-02-01T03:03:15;3.72;;;2.30;;
65665;SDS011;52365;47.464;18.976;2023-02-01T03:04:10;4.07;;;2.00;;
65665;SDS011;52365;47.464;18.976;2023-02-01T03:04:53;4.87;;;2.40;;
65665;SDS011;52365;47.464;18.976;2023-02-01T03:05:35;7.43;;;2.40;;
65665;SDS011;52365;47.464;18.976;2023-02-01T03:06:16;4.20;;;2.60;;
65665;SDS011;52365;47.464;18.976;2023-02-01T03:06:54;3.62;;;2.28;;
65665;SDS011;52365;47.464;18.976;2023-02-01T03:08:38;3.62;;;2.20;;
65665;SDS011;52365;47.464;18.976;2023-02-01T03:09:23;5.37;;;2.47;;
65665;SDS011;52365;47.464;18.976;2023-02-01T03:10:07;4.65;;;2.40;;
65665;SDS011;52365;47.464;18.976;2023-02-01T03:11:33;4.28;;;2.50;;
65665;SDS011;52365;47.464;18.976;2023-02-01T03:12:29;4.37;;;2.40;;
65665;SDS011;52365;47.464;18.976;2023-02-01T03:14:18;3.65;;;2.10;;
65665;SDS011;52365;47.464;18.976;2023-02-01T03:15:00;5.80;;;2.50;;
65665;SDS011;52365;47.464;18.976;2023-02-01T03:16:41;5.75;;;2.30;;
65665;SDS011;52365;47.464;18.976;2023-02-01T03:17:29;3.22;;;2.33;;
65665;SDS011;52365;47.464;18.976;2023-02-01T03:18:13;3.97;;;2.55;;
65665;SDS011;52365;47.464;18.976;2023-02-01T03:19:43;3.62;;;2.40;;
65665;SDS011;52365;47.464;18.976;2023-02-01T03:20:25;3.80;;;2.40;;
65665;SDS011;52365;47.464;18.976;2023-02-01T03:21:02;4.10;;;2.40;;
65665;SDS011;52365;47.464;18.976;2023-02-01T03:21:48;4.57;;;2.45;;
65665;SDS011;52365;47.464;18.976;2023-02-01T03:22:29;3.03;;;2.30;;
65665;SDS011;52365;47.464;18.976;2023-02-01T03:23:09;3.85;;;2.10;;
65665;SDS011;52365;47.464;18.976;2023-02-01T03:23:49;3.83;;;2.10;;
65665;SDS011;52365;47.464;18.976;2023-02-01T03:24:30;3.15;;;2.20;;
65665;SDS011;52365;47.464;18.976;2023-02-01T03:25:12;3.58;;;2.30;;
65665;SDS011;52365;47.464;18.976;2023-02-01T03:25:54;3.50;;;2.12;;
65665;SDS011;52365;47.464;18.976;2023-02-01T03:26:33;3.10;;;2.17;;
65665;SDS011;52365;47.464;18.976;2023-02-01T03:28:16;3.62;;;2.20;;
65665;SDS011;52365;47.464;18.976;2023-02-01T03:28:58;2.95;;;2.00;;
65665;SDS011;52365;47.464;18.976;2023-02-01T03:29:56;3.35;;;1.98;;
65665;SDS011;52365;47.464;18.976;2023-02-01T03:30:38;3.10;;;1.90;;
65665;SDS011;52365;47.464;18.976;2023-02-01T03:31:19;2.90;;;1.90;;
65665;SDS011;52365;47.464;18.976;2023-02-01T03:31:55;3.17;;;2.00;;
65665;SDS011;52365;47.464;18.976;2023-02-01T03:32:32;2.85;;;2.00;;
65665;SDS011;52365;47.464;18.976;2023-02-01T03:33:30;2.67;;;1.85;;
65665;SDS011;52365;47.464;18.976;2023-02-01T03:34:07;3.50;;;2.10;;
65665;SDS011;52365;47.464;18.976;2023-02-01T03:34:43;2.87;;;2.05;;
65665;SDS011;52365;47.464;18.976;2023-02-01T03:35:23;3.00;;;2.00;;
65665;SDS011;52365;47.464;18.976;2023-02-01T03:36:49;3.85;;;2.10;;
65665;SDS011;52365;47.464;18.976;2023-02-01T03:37:14;2.72;;;2.00;;
65665;SDS011;52365;47.464;18.976;2023-02-01T03:39:58;3.22;;;2.08;;
65665;SDS011;52365;47.464;18.976;2023-02-01T03:40:36;2.92;;;1.80;;
65665;SDS011;52365;47.464;18.976;2023-02-01T03:41:17;2.60;;;1.80;;
65665;SDS011;52365;47.464;18.976;2023-02-01T03:42:00;2.58;;;1.90;;
65665;SDS011;52365;47.464;18.976;2023-02-01T03:42:40;2.90;;;1.90;;
65665;SDS011;52365;47.464;18.976;2023-02-01T03:43:21;3.17;;;1.80;;
65665;SDS011;52365;47.464;18.976;2023-02-01T03:45:01;2.65;;;1.73;;
65665;SDS011;52365;47.464;18.976;2023-02-01T03:45:47;3.05;;;1.90;;
65665;SDS011;52365;47.464;18.976;2023-02-01T03:46:32;2.67;;;1.90;;
65665;SDS011;52365;47.464;18.976;2023-02-01T03:47:15;3.28;;;1.92;;
65665;SDS011;52365;47.464;18.976;2023-02-01T03:47:56;3.00;;;2.00;;
65665;SDS011;52365;47.464;18.976;2023-02-01T03:48:36;2.87;;;1.80;;
65665;SDS011;52365;47.464;18.976;2023-02-01T03:49:14;2.40;;;1.87;;
65665;SDS011;52365;47.464;18.976;2023-02-01T03:51:00;2.40;;;1.87;;
65665;SDS011;52365;47.464;18.976;2023-02-01T03:51:40;3.22;;;1.92;;
65665;SDS011;52365;47.464;18.976;2023-02-01T03:52:18;3.08;;;2.00;;
65665;SDS011;52365;47.464;18.976;2023-02-01T03:53:07;2.22;;;1.73;;
65665;SDS011;52365;47.464;18.976;2023-02-01T03:53:47;2.60;;;1.70;;
65665;SDS011;52365;47.464;18.976;2023-02-01T03:54:25;2.50;;;1.90;;
65665;SDS011;52365;47.464;18.976;2023-02-01T03:55:04;2.67;;;1.95;;
65665;SDS011;52365;47.464;18.976;2023-02-01T03:55:42;2.85;;;2.00;;
65665;SDS011;52365;47.464;18.976;2023-02-01T03:56:18;3.05;;;1.90;;
65665;SDS011;52365;47.464;18.976;2023-02-01T03:56:59;2.42;;;1.70;;
65665;SDS011;52365;47.464;18.976;2023-02-01T03:57:44;2.92;;;1.95;;
65665;SDS011;52365;47.464;18.976;2023-02-01T03:58:24;2.87;;;1.80;;
65665;SDS011;52365;47.464;18.976;2023-02-01T03:59:00;2.60;;;1.80;;
65665;SDS011;52365;47.464;18.976;2023-02-01T03:59:43;2.67;;;1.90;;
65665;SDS011;52365;47.464;18.976;2023-02-01T04:00:21;2.78;;;2.00;;
65665;SDS011;52365;47.464;18.976;2023-02-01T04:01:00;3.03;;;2.05;;
65665;SDS011;52365;47.464;18.976;2023-02-01T04:01:36;2.80;;;1.90;;
65665;SDS011;52365;47.464;18.976;2023-02-01T04:02:12;3.15;;;1.70;;
65665;SDS011;52365;47.464;18.976;2023-02-01T04:02:49;2.80;;;2.10;;
65665;SDS011;52365;47.464;18.976;2023-02-01T04:03:26;2.90;;;2.00;;
65665;SDS011;52365;47.464;18.976;2023-02-01T04:04:04;3.75;;;2.10;;
65665;SDS011;52365;47.464;18.976;2023-02-01T04:04:40;2.60;;;1.80;;
65665;SDS011;52365;47.464;18.976;2023-02-01T04:05:16;3.08;;;1.87;;
65665;SDS011;52365;47.464;18.976;2023-02-01T04:05:52;2.87;;;2.03;;
65665;SDS011;52365;47.464;18.976;2023-02-01T04:06:28;3.20;;;2.05;;
65665;SDS011;52365;47.464;18.976;2023-02-01T04:07:04;3.78;;;2.05;;
65665;SDS011;52365;47.464;18.976;2023-02-01T04:07:40;2.97;;;2.10;;
65665;SDS011;52365;47.464;18.976;2023-02-01T04:08:17;2.95;;;2.00;;
65665;SDS011;52365;47.464;18.976;2023-02-01T04:08:55;3.53;;;2.05;;
65665;SDS011;52365;47.464;18.976;2023-02-01T04:09:31;3.28;;;2.10;;
65665;SDS011;52365;47.464;18.976;2023-02-01T04:10:07;2.80;;;1.90;;
65665;SDS011;52365;47.464;18.976;2023-02-01T04:10:44;2.75;;;1.95;;
65665;SDS011;52365;47.464;18.976;2023-02-01T04:11:21;3.30;;;2.10;;
65665;SDS011;52365;47.464;18.976;2023-02-01T04:11:57;2.83;;;2.10;;
65665;SDS011;52365;47.464;18.976;2023-02-01T04:12:33;2.97;;;2.03;;
65665;SDS011;52365;47.464;18.976;2023-02-01T04:13:09;2.97;;;2.03;;
65665;SDS011;52365;47.464;18.976;2023-02-01T04:13:45;3.00;;;1.90;;
65665;SDS011;52365;47.464;18.976;2023-02-01T04:14:22;2.67;;;1.90;;
65665;SDS011;52365;47.464;18.976;2023-02-01T04:14:58;2.53;;;2.00;;
65665;SDS011;52365;47.464;18.976;2023-02-01T04:15:34;2.53;;;1.90;;
65665;SDS011;52365;47.464;18.976;2023-02-01T04:16:10;3.65;;;2.15;;
65665;SDS011;52365;47.464;18.976;2023-02-01T04:16:46;3.00;;;1.98;;
65665;SDS011;52365;47.464;18.976;2023-02-01T04:17:22;2.85;;;1.95;;
65665;SDS011;52365;47.464;18.976;2023-02-01T04:17:58;2.55;;;1.80;;
65665;SDS011;52365;47.464;18.976;2023-02-01T04:18:34;3.10;;;2.03;;
65665;SDS011;52365;47.464;18.976;2023-02-01T04:19:11;2.72;;;1.83;;
65665;SDS011;52365;47.464;18.976;2023-02-01T04:19:47;3.08;;;1.87;;
65665;SDS011;52365;47.464;18.976;2023-02-01T04:20:23;3.03;;;2.20;;
65665;SDS011;52365;47.464;18.976;2023-02-01T04:20:59;2.60;;;1.70;;
65665;SDS011;52365;47.464;18.976;2023-02-01T04:21:36;2.90;;;2.00;;
65665;SDS011;52365;47.464;18.976;2023-02-01T04:22:13;2.30;;;1.75;;
65665;SDS011;52365;47.464;18.976;2023-02-01T04:22:49;2.80;;;2.10;;
65665;SDS011;52365;47.464;18.976;2023-02-01T04:23:25;2.72;;;1.92;;
65665;SDS011;52365;47.464;18.976;2023-02-01T04:24:01;2.80;;;2.03;;
65665;SDS011;52365;47.464;18.976;2023-02-01T04:24:37;2.30;;;1.85;;
65665;SDS011;52365;47.464;18.976;2023-02-01T04:25:13;3.70;;;2.20;;
65665;SDS011;52365;47.464;18.976;2023-02-01T04:25:49;2.25;;;1.75;;
65665;SDS011;52365;47.464;18.976;2023-02-01T04:26:26;2.47;;;1.90;;
65665;SDS011;52365;47.464;18.976;2023-02-01T04:27:02;3.05;;;2.00;;
65665;SDS011;52365;47.464;18.976;2023-02-01T04:27:38;2.87;;;2.00;;
65665;SDS011;52365;47.464;18.976;2023-02-01T04:28:14;2.20;;;1.80;;
65665;SDS011;52365;47.464;18.976;2023-02-01T04:28:50;3.30;;;2.10;;
65665;SDS011;52365;47.464;18.976;2023-02-01T04:29:28;2.72;;;2.00;;